createdAt,value
2018-05-01T00:00:35.724Z,13.10
2018-05-01T00:03:03.233Z,13.10
2018-05-01T00:05:31.519Z,13.00
2018-05-01T00:07:59.832Z,13.00
2018-05-01T00:10:27.348Z,13.00
2018-05-01T00:12:54.862Z,12.90
2018-05-01T00:15:22.724Z,12.70
2018-05-01T00:17:51.015Z,12.80
2018-05-01T00:20:18.539Z,12.80
2018-05-01T00:22:46.848Z,12.70
2018-05-01T00:25:25.239Z,12.70
2018-05-01T00:30:28.212Z,12.60
2018-05-01T00:32:56.537Z,12.70
2018-05-01T00:35:24.046Z,12.60
2018-05-01T00:37:51.585Z,12.60
2018-05-01T00:40:19.102Z,12.60
2018-05-01T00:42:46.640Z,12.70
2018-05-01T00:45:17.590Z,12.70
2018-05-01T00:47:45.108Z,12.60
2018-05-01T00:50:14.307Z,12.50
2018-05-01T00:52:45.155Z,12.50
2018-05-01T00:55:14.354Z,12.60
2018-05-01T00:57:41.886Z,12.60
2018-05-01T01:00:09.427Z,12.50
2018-05-01T01:02:36.967Z,12.50
2018-05-01T01:05:04.480Z,12.60
2018-05-01T01:07:32.825Z,12.70
2018-05-01T01:10:00.345Z,12.60
2018-05-01T01:12:27.871Z,12.70
2018-05-01T01:14:56.692Z,12.70
2018-05-01T01:17:24.215Z,12.70
2018-05-01T01:19:52.509Z,12.60
2018-05-01T01:22:20.042Z,12.60
2018-05-01T01:24:47.920Z,12.60
2018-05-01T01:27:16.437Z,12.50
2018-05-01T01:29:43.983Z,12.40
2018-05-01T01:32:14.411Z,12.30
2018-05-01T01:34:41.923Z,12.40
2018-05-01T01:37:09.332Z,12.40
2018-05-01T01:39:36.355Z,12.40
2018-05-01T01:42:03.389Z,12.20
2018-05-01T01:44:30.442Z,12.00
2018-05-01T01:46:58.410Z,11.80
2018-05-01T01:49:26.198Z,12.00
2018-05-01T01:51:53.270Z,11.90
2018-05-01T01:54:20.295Z,12.10
2018-05-01T01:56:47.324Z,12.00
2018-05-01T01:59:16.558Z,11.90
2018-05-01T02:01:44.342Z,11.90
2018-05-01T02:04:11.377Z,11.90
2018-05-01T02:06:38.444Z,11.90
2018-05-01T02:09:05.467Z,11.90
2018-05-01T02:11:32.487Z,12.00
2018-05-01T02:13:59.543Z,12.10
2018-05-01T02:16:26.566Z,12.00
2018-05-01T02:18:54.354Z,12.10
2018-05-01T02:21:22.033Z,12.10
2018-05-01T02:23:49.067Z,12.00
2018-05-01T02:26:16.108Z,12.00
2018-05-01T02:28:43.171Z,11.90
2018-05-01T02:31:10.197Z,11.90
2018-05-01T02:33:37.318Z,11.80
2018-05-01T02:36:04.312Z,11.80
2018-05-01T02:38:31.349Z,11.80
2018-05-01T02:40:58.370Z,11.90
2018-05-01T02:43:25.648Z,11.90
2018-05-01T02:45:52.670Z,11.90
2018-05-01T02:48:20.638Z,11.90
2018-05-01T02:50:47.701Z,11.90
2018-05-01T02:53:15.936Z,11.90
2018-05-01T02:55:43.907Z,12.10
2018-05-01T02:58:10.899Z,12.10
2018-05-01T03:00:37.931Z,12.10
2018-05-01T03:03:04.952Z,12.00
2018-05-01T03:05:33.167Z,12.00
2018-05-01T03:08:00.182Z,12.00
2018-05-01T03:10:27.206Z,12.10
2018-05-01T03:12:54.265Z,12.10
2018-05-01T03:15:22.059Z,12.10
2018-05-01T03:17:49.086Z,12.10
2018-05-01T03:20:16.905Z,12.00
2018-05-01T03:22:43.934Z,12.00
2018-05-01T03:25:10.962Z,12.00
2018-05-01T03:27:38.630Z,12.10
2018-05-01T03:30:06.475Z,12.00
2018-05-01T03:32:34.262Z,12.00
2018-05-01T03:35:01.310Z,12.00
2018-05-01T03:37:28.340Z,11.90
2018-05-01T03:39:55.355Z,11.90
2018-05-01T03:42:22.404Z,12.00
2018-05-01T03:44:49.426Z,11.90
2018-05-01T03:47:16.454Z,11.90
2018-05-01T03:49:45.023Z,11.90
2018-05-01T03:52:12.071Z,11.80
2018-05-01T03:54:39.087Z,11.80
2018-05-01T03:57:06.144Z,11.90
2018-05-01T03:59:33.171Z,11.90
2018-05-01T04:02:00.227Z,12.00
2018-05-01T04:04:27.281Z,11.90
2018-05-01T04:06:54.316Z,11.90
2018-05-01T04:09:21.354Z,11.80
2018-05-01T04:11:48.471Z,11.70
2018-05-01T04:14:15.931Z,11.70
2018-05-01T04:16:42.943Z,11.70
2018-05-01T04:19:09.997Z,11.70
2018-05-01T04:21:37.047Z,11.70
2018-05-01T04:24:04.082Z,11.60
2018-05-01T04:26:31.154Z,11.70
2018-05-01T04:28:58.181Z,11.70
2018-05-01T04:31:25.204Z,11.70
2018-05-01T04:33:52.903Z,11.60
2018-05-01T04:36:19.928Z,11.70
2018-05-01T04:38:46.963Z,11.70
2018-05-01T04:41:14.194Z,11.70
2018-05-01T04:53:02.454Z,11.70
2018-05-01T04:55:29.478Z,11.50
2018-05-01T04:57:56.534Z,11.60
2018-05-01T05:00:23.604Z,11.60
2018-05-01T05:02:50.644Z,11.60
2018-05-01T05:05:17.699Z,11.70
2018-05-01T05:07:44.819Z,11.80
2018-05-01T05:10:11.855Z,11.80
2018-05-01T05:12:38.878Z,11.80
2018-05-01T05:15:05.986Z,11.90
2018-05-01T05:17:33.016Z,11.90
2018-05-01T05:20:00.047Z,11.90
2018-05-01T05:22:27.135Z,11.90
2018-05-01T05:24:54.176Z,11.90
2018-05-01T05:27:21.236Z,11.80
2018-05-01T05:29:48.318Z,11.90
2018-05-01T05:32:16.750Z,12.30
2018-05-01T05:34:43.788Z,12.30
2018-05-01T05:37:11.351Z,12.40
2018-05-01T05:39:38.393Z,12.60
2018-05-01T05:42:05.432Z,12.70
2018-05-01T05:44:32.533Z,12.80
2018-05-01T05:46:59.586Z,12.90
2018-05-01T05:49:26.628Z,12.90
2018-05-01T05:51:53.699Z,13.00
2018-05-01T05:54:21.536Z,13.00
2018-05-01T05:56:48.596Z,13.10
2018-05-01T05:59:16.055Z,13.20
2018-05-01T06:01:43.139Z,13.20
2018-05-01T06:04:10.195Z,13.20
2018-05-01T06:06:37.282Z,13.40
2018-05-01T06:09:04.347Z,13.30
2018-05-01T06:11:32.168Z,13.50
2018-05-01T06:13:59.231Z,13.40
2018-05-01T06:16:26.274Z,13.50
2018-05-01T06:18:53.318Z,13.30
2018-05-01T06:21:20.662Z,13.30
2018-05-01T06:23:47.701Z,13.40
2018-05-01T06:26:15.995Z,13.30
2018-05-01T06:28:43.093Z,13.30
2018-05-01T06:31:10.200Z,13.50
2018-05-01T06:33:37.219Z,13.80
2018-05-01T06:36:04.262Z,13.80
2018-05-01T06:38:31.287Z,13.90
2018-05-01T06:40:58.307Z,14.00
2018-05-01T06:43:25.426Z,14.40
2018-05-01T06:45:52.811Z,14.40
2018-05-01T06:48:19.895Z,14.60
2018-05-01T06:50:47.043Z,14.50
2018-05-01T06:53:15.062Z,14.40
2018-05-01T06:55:42.788Z,14.50
2018-05-01T06:58:09.976Z,14.60
2018-05-01T07:00:37.031Z,14.80
2018-05-01T07:03:04.133Z,15.00
2018-05-01T07:05:31.655Z,15.00
2018-05-01T07:07:58.746Z,15.10
2018-05-01T07:10:26.578Z,15.10
2018-05-01T07:12:53.630Z,15.10
2018-05-01T07:15:20.662Z,15.60
2018-05-01T07:17:47.715Z,16.10
2018-05-01T07:20:15.066Z,16.00
2018-05-01T07:22:42.112Z,16.40
2018-05-01T07:25:09.143Z,16.80
2018-05-01T07:27:36.684Z,17.00
2018-05-01T07:30:03.731Z,17.00
2018-05-01T07:32:30.790Z,17.00
2018-05-01T07:34:58.062Z,17.00
2018-05-01T07:37:25.151Z,17.40
2018-05-01T07:39:52.191Z,18.30
2018-05-01T07:42:19.297Z,20.30
2018-05-01T07:44:46.387Z,20.40
2018-05-01T07:47:14.934Z,22.20
2018-05-01T07:59:18.227Z,22.20
2018-05-01T08:01:45.443Z,26.70
2018-05-01T08:04:15.381Z,28.10
2018-05-01T08:06:42.448Z,28.10
2018-05-01T08:09:09.511Z,28.40
2018-05-01T08:11:36.643Z,28.30
2018-05-01T08:14:03.695Z,29.00
2018-05-01T08:16:30.842Z,29.60
2018-05-01T08:18:57.867Z,29.50
2018-05-01T08:21:25.334Z,29.20
2018-05-01T08:23:52.393Z,29.00
2018-05-01T08:26:19.423Z,28.60
2018-05-01T08:28:46.484Z,29.00
2018-05-01T08:31:16.232Z,30.70
2018-05-01T08:33:44.063Z,31.20
2018-05-01T08:36:11.266Z,31.20
2018-05-01T08:38:38.316Z,31.70
2018-05-01T08:41:05.349Z,31.50
2018-05-01T08:43:32.422Z,32.10
2018-05-01T08:46:00.518Z,33.50
2018-05-01T08:48:27.541Z,34.50
2018-05-01T08:50:54.630Z,35.10
2018-05-01T08:53:21.684Z,35.60
2018-05-01T08:55:48.718Z,36.20
2018-05-01T08:58:16.776Z,36.70
2018-05-01T09:00:44.419Z,36.70
2018-05-01T09:03:11.444Z,36.10
2018-05-01T09:05:38.662Z,33.60
2018-05-01T09:08:05.686Z,31.90
2018-05-01T09:10:34.184Z,31.90
2018-05-01T09:13:01.252Z,30.40
2018-05-01T09:15:28.296Z,28.20
2018-05-01T09:17:55.421Z,27.00
2018-05-01T09:20:22.407Z,25.80
2018-05-01T09:22:49.437Z,25.50
2018-05-01T09:25:16.479Z,24.80
2018-05-01T09:27:43.551Z,24.60
2018-05-01T09:30:10.572Z,24.50
2018-05-01T09:32:38.366Z,24.00
2018-05-01T09:35:05.421Z,24.00
2018-05-01T09:37:32.526Z,23.80
2018-05-01T09:39:59.629Z,23.60
2018-05-01T09:42:26.690Z,23.70
2018-05-01T09:44:53.781Z,23.70
2018-05-01T09:47:21.578Z,23.30
2018-05-01T09:49:49.213Z,23.20
2018-05-01T09:52:16.875Z,23.30
2018-05-01T09:54:44.386Z,23.10
2018-05-01T09:57:12.143Z,23.00
2018-05-01T09:59:39.659Z,22.50
2018-05-01T10:02:08.314Z,22.30
2018-05-01T10:04:35.846Z,22.30
2018-05-01T10:07:03.382Z,21.70
2018-05-01T10:09:30.903Z,21.40
2018-05-01T10:11:59.414Z,20.50
2018-05-01T10:14:26.939Z,20.50
2018-05-01T10:16:54.656Z,20.60
2018-05-01T10:19:22.198Z,20.40
2018-05-01T10:21:49.731Z,20.40
2018-05-01T10:24:18.019Z,20.70
2018-05-01T10:26:45.562Z,20.70
2018-05-01T10:29:23.604Z,20.80
2018-05-01T10:33:46.939Z,20.60
2018-05-01T10:36:15.460Z,20.70
2018-05-01T10:38:43.038Z,20.60
2018-05-01T10:41:10.594Z,20.70
2018-05-01T10:43:38.111Z,21.00
2018-05-01T10:46:06.396Z,20.60
2018-05-01T10:48:33.930Z,20.60
2018-05-01T10:51:01.458Z,20.80
2018-05-01T10:53:29.039Z,20.60
2018-05-01T10:55:56.782Z,20.60
2018-05-01T10:58:24.300Z,20.60
2018-05-01T11:00:51.811Z,20.30
2018-05-01T11:03:20.216Z,20.30
2018-05-01T11:05:48.539Z,19.80
2018-05-01T11:08:17.535Z,19.40
2018-05-01T11:10:45.085Z,19.40
2018-05-01T11:13:13.535Z,19.20
2018-05-01T11:15:41.815Z,19.30
2018-05-01T11:18:10.423Z,19.30
2018-05-01T11:20:37.947Z,19.20
2018-05-01T11:23:06.222Z,19.70
2018-05-01T11:25:33.802Z,19.70
2018-05-01T11:28:01.324Z,19.60
2018-05-01T11:30:29.634Z,20.20
2018-05-01T11:32:57.171Z,20.20
2018-05-01T11:35:24.689Z,20.30
2018-05-01T11:37:52.219Z,20.20
2018-05-01T11:40:20.419Z,20.00
2018-05-01T11:42:47.948Z,19.80
2018-05-01T11:45:16.455Z,20.00
2018-05-01T11:47:43.994Z,20.10
2018-05-01T11:50:11.517Z,20.10
2018-05-01T11:52:39.801Z,19.80
2018-05-01T11:55:08.107Z,19.90
2018-05-01T11:57:35.652Z,19.80
2018-05-01T12:00:03.202Z,19.90
2018-05-01T12:02:31.113Z,19.90
2018-05-01T12:04:59.420Z,19.60
2018-05-01T12:07:26.965Z,19.20
2018-05-01T12:09:54.515Z,19.20
2018-05-01T12:12:22.031Z,19.00
2018-05-01T12:14:49.543Z,19.10
2018-05-01T12:17:17.087Z,18.90
2018-05-01T12:19:44.597Z,18.90
2018-05-01T12:22:12.121Z,18.80
2018-05-01T12:24:40.397Z,18.80
2018-05-01T12:27:08.688Z,18.70
2018-05-01T12:29:36.995Z,18.80
2018-05-01T12:32:04.565Z,18.80
2018-05-01T12:34:32.097Z,18.80
2018-05-01T12:36:59.695Z,18.90
2018-05-01T12:39:27.340Z,18.90
2018-05-01T12:41:54.899Z,18.90
2018-05-01T12:44:22.408Z,19.00
2018-05-01T12:46:50.251Z,19.10
2018-05-01T12:49:17.778Z,19.20
2018-05-01T12:51:45.299Z,19.60
2018-05-01T12:54:24.775Z,19.50
2018-05-01T12:59:55.735Z,19.30
2018-05-01T13:09:54.676Z,19.20
2018-05-01T13:12:24.101Z,19.20
2018-05-01T13:19:53.251Z,19.30
2018-05-01T13:32:22.589Z,20.20
2018-05-01T15:06:53.171Z,20.20
2018-05-01T15:09:22.473Z,20.30
2018-05-01T15:11:52.373Z,20.30
2018-05-01T15:19:21.286Z,20.60
2018-05-01T15:26:50.669Z,20.80
2018-05-01T15:29:20.642Z,20.80
2018-05-01T15:49:22.304Z,19.30
2018-05-01T15:56:51.941Z,19.30
2018-05-01T16:14:19.228Z,19.20
2018-05-01T16:19:18.919Z,19.00
2018-05-01T16:58:24.870Z,17.60
2018-05-01T17:03:24.528Z,17.50
2018-05-01T17:20:53.418Z,17.40
2018-05-01T17:30:52.312Z,16.80
2018-05-01T17:33:22.187Z,16.70
2018-05-01T17:35:52.187Z,16.50
2018-05-01T17:56:36.492Z,15.60
2018-05-01T18:11:40.932Z,15.00
2018-05-01T18:19:10.988Z,15.00
2018-05-01T18:26:40.436Z,14.90
2018-05-01T18:36:40.140Z,14.80
2018-05-01T18:39:09.497Z,14.80
2018-05-01T19:06:36.360Z,14.60
2018-05-01T19:16:37.504Z,14.50
2018-05-01T19:50:00.643Z,14.40
2018-05-01T20:14:58.468Z,13.90
2018-05-01T20:39:55.107Z,13.60
2018-05-01T20:42:24.708Z,13.50
2018-05-01T20:49:54.709Z,13.20
2018-05-01T20:57:31.007Z,13.10
2018-05-01T21:10:01.667Z,12.90
2018-05-01T21:47:28.092Z,12.40
2018-05-01T22:12:26.741Z,12.20
2018-05-01T22:32:24.036Z,12.30
2018-05-01T22:44:54.184Z,12.10
2018-05-01T23:09:51.807Z,12.20
2018-05-01T23:17:21.088Z,12.20
2018-05-01T23:27:18.902Z,12.20
